Ferrisburgh, Vermont
Current Conditions -  °F | °C
As of 12:55 PM on Monday 22 Dec 2014 (Local Time) from K6B0 Reporting Station
Overcast Overcast  
Wind Chill: 31°   Ceiling: 4000
Heat Index: 31°   Visibility: 10mi
Dew Point: 26°   Wind: 0mph
Humidity: 80%   Direction: NA
Pressure: 30.31"   Gusts: NA
Location:  44.2091°N, 73.2784°W
Report Text: K6B0 221755Z AUTO 00000KT 10SM OVC040 00/M04 A3031 RMK AO2 T10051036 11005 21039
Loading
Personal Weather Stations






























Interactive Weather Map New forecast layout! Learn more

10-Day Weather Forecast

Advertisements
Track Severe Weather on mobile